sensor_id;sensor_type;location;lat;lon;timestamp;pressure;altitude;pressure_sealevel;temperature;humidity
57610;BME280;43435;46.186;9.024;2023-09-19T13:52:42;98359.81;;;27.59;44.25
57610;BME280;43435;46.186;9.024;2023-09-19T13:55:08;98357.69;;;27.56;44.23
57610;BME280;43435;46.186;9.024;2023-09-19T13:57:33;98352.47;;;27.94;42.16
57610;BME280;43435;46.186;9.024;2023-09-19T13:59:58;98357.16;;;28.03;42.21
57610;BME280;43435;46.186;9.024;2023-09-19T14:02:24;98359.91;;;28.03;41.66
57610;BME280;43435;46.186;9.024;2023-09-19T14:04:49;98358.56;;;27.83;43.18
57610;BME280;43435;46.186;9.024;2023-09-19T14:07:15;98361.19;;;27.97;41.11
57610;BME280;43435;46.186;9.024;2023-09-19T14:09:40;98361.19;;;27.97;40.62
57610;BME280;43435;46.186;9.024;2023-09-19T14:12:06;98368.72;;;27.82;41.27
57610;BME280;43435;46.186;9.024;2023-09-19T14:14:31;98360.34;;;27.79;41.97
57610;BME280;43435;46.186;9.024;2023-09-19T14:16:57;98362.13;;;27.83;43.14
57610;BME280;43435;46.186;9.024;2023-09-19T14:19:25;98369.22;;;27.84;42.97
57610;BME280;43435;46.186;9.024;2023-09-19T14:21:50;98362.94;;;27.84;44.59
57610;BME280;43435;46.186;9.024;2023-09-19T14:24:16;98358.91;;;27.81;44.54
57610;BME280;43435;46.186;9.024;2023-09-19T14:26:41;98366.00;;;27.82;44.25
57610;BME280;43435;46.186;9.024;2023-09-19T14:29:06;98359.50;;;27.69;45.32
57610;BME280;43435;46.186;9.024;2023-09-19T14:31:37;98360.44;;;27.48;46.13
57610;BME280;43435;46.186;9.024;2023-09-19T14:34:02;98355.47;;;27.67;45.35
57610;BME280;43435;46.186;9.024;2023-09-19T14:36:29;98357.63;;;27.87;45.08
57610;BME280;43435;46.186;9.024;2023-09-19T15:14:07;98355.78;;;28.78;42.94
57610;BME280;43435;46.186;9.024;2023-09-19T15:16:33;98361.44;;;28.91;43.48
57610;BME280;43435;46.186;9.024;2023-09-19T15:18:58;98362.56;;;28.98;42.44
57610;BME280;43435;46.186;9.024;2023-09-19T15:21:23;98356.19;;;29.15;41.49
57610;BME280;43435;46.186;9.024;2023-09-19T15:23:49;98362.56;;;28.98;42.83
57610;BME280;43435;46.186;9.024;2023-09-19T15:26:14;98366.22;;;29.11;42.12
57610;BME280;43435;46.186;9.024;2023-09-19T15:28:45;98368.97;;;29.11;42.41
57610;BME280;43435;46.186;9.024;2023-09-19T15:31:11;98371.72;;;29.11;41.83
57610;BME280;43435;46.186;9.024;2023-09-19T15:33:36;98368.16;;;29.10;42.26
57610;BME280;43435;46.186;9.024;2023-09-19T15:36:02;98372.66;;;29.15;41.96
57610;BME280;43435;46.186;9.024;2023-09-19T15:38:28;98377.13;;;29.28;40.47
57610;BME280;43435;46.186;9.024;2023-09-19T15:40:54;98369.88;;;29.24;41.18
57610;BME280;43435;46.186;9.024;2023-09-19T15:43:20;98382.81;;;29.53;42.63
57610;BME280;43435;46.186;9.024;2023-09-19T15:45:46;98377.66;;;29.51;42.23
57610;BME280;43435;46.186;9.024;2023-09-19T15:48:13;98377.41;;;29.35;48.69
57610;BME280;43435;46.186;9.024;2023-09-19T15:50:38;98380.28;;;28.92;48.31
57610;BME280;43435;46.186;9.024;2023-09-19T15:53:05;98380.47;;;28.87;46.55
57610;BME280;43435;46.186;9.024;2023-09-19T15:55:31;98376.84;;;29.21;44.85
57610;BME280;43435;46.186;9.024;2023-09-19T15:57:56;98377.38;;;29.74;40.69
57610;BME280;43435;46.186;9.024;2023-09-19T16:00:21;98376.38;;;29.78;41.29
57610;BME280;43435;46.186;9.024;2023-09-19T16:02:47;98384.50;;;29.75;43.26
57610;BME280;43435;46.186;9.024;2023-09-19T16:05:15;98382.63;;;29.20;47.34
57610;BME280;43435;46.186;9.024;2023-09-19T16:07:40;98384.53;;;29.36;45.26
57610;BME280;43435;46.186;9.024;2023-09-19T16:10:05;98387.63;;;28.62;51.18
57610;BME280;43435;46.186;9.024;2023-09-19T16:12:31;98381.59;;;29.03;48.49
57610;BME280;43435;46.186;9.024;2023-09-19T16:14:56;98377.50;;;29.18;49.52
57610;BME280;43435;46.186;9.024;2023-09-19T16:17:22;98384.38;;;29.33;48.97
57610;BME280;43435;46.186;9.024;2023-09-19T16:19:47;98382.44;;;29.33;48.09
57610;BME280;43435;46.186;9.024;2023-09-19T16:22:12;98389.31;;;29.48;48.19
57610;BME280;43435;46.186;9.024;2023-09-19T16:24:38;98389.44;;;29.52;48.22
57610;BME280;43435;46.186;9.024;2023-09-19T16:27:04;98391.84;;;29.62;47.12
57610;BME280;43435;46.186;9.024;2023-09-19T16:29:29;98393.06;;;29.73;46.40
57610;BME280;43435;46.186;9.024;2023-09-19T16:31:54;98394.16;;;29.81;45.81
57610;BME280;43435;46.186;9.024;2023-09-19T16:34:20;98400.41;;;30.11;44.22
57610;BME280;43435;46.186;9.024;2023-09-19T16:36:45;98405.28;;;29.84;46.23
57610;BME280;43435;46.186;9.024;2023-09-19T16:39:11;98408.47;;;29.95;44.79
57610;BME280;43435;46.186;9.024;2023-09-19T16:41:36;98412.59;;;29.80;47.59
57610;BME280;43435;46.186;9.024;2023-09-19T16:44:01;98422.59;;;29.85;46.69
57610;BME280;43435;46.186;9.024;2023-09-19T16:46:29;98422.72;;;29.59;48.73
57610;BME280;43435;46.186;9.024;2023-09-19T16:48:54;98433.22;;;29.57;47.90
57610;BME280;43435;46.186;9.024;2023-09-19T16:51:19;98429.38;;;29.58;47.94
57610;BME280;43435;46.186;9.024;2023-09-19T16:53:46;98442.28;;;29.49;48.84
57610;BME280;43435;46.186;9.024;2023-09-19T16:56:12;98439.63;;;29.31;49.33
57610;BME280;43435;46.186;9.024;2023-09-19T16:58:40;98443.03;;;29.28;48.67
57610;BME280;43435;46.186;9.024;2023-09-19T17:01:08;98442.38;;;29.31;46.59
57610;BME280;43435;46.186;9.024;2023-09-19T17:03:34;98452.88;;;29.29;47.84
57610;BME280;43435;46.186;9.024;2023-09-19T17:06:00;98457.91;;;29.27;48.06
57610;BME280;43435;46.186;9.024;2023-09-19T17:08:26;98462.28;;;29.11;48.67
57610;BME280;43435;46.186;9.024;2023-09-19T17:11:04;98451.81;;;28.96;49.74
57610;BME280;43435;46.186;9.024;2023-09-19T17:13:30;98465.53;;;28.78;50.46
57610;BME280;43435;46.186;9.024;2023-09-19T17:16:00;98466.69;;;28.60;50.42
57610;BME280;43435;46.186;9.024;2023-09-19T17:18:25;98473.13;;;28.38;51.42
57610;BME280;43435;46.186;9.024;2023-09-19T17:20:50;98471.41;;;27.93;53.33
57610;BME280;43435;46.186;9.024;2023-09-19T17:23:16;98477.94;;;27.35;54.41
57610;BME280;43435;46.186;9.024;2023-09-19T17:25:42;98483.66;;;27.03;54.65
57610;BME280;43435;46.186;9.024;2023-09-19T17:28:07;98483.44;;;26.90;54.53
57610;BME280;43435;46.186;9.024;2023-09-19T17:30:32;98489.16;;;26.80;55.45
57610;BME280;43435;46.186;9.024;2023-09-19T17:33:00;98490.41;;;26.74;56.03
57610;BME280;43435;46.186;9.024;2023-09-19T17:35:25;98495.06;;;26.73;55.54
57610;BME280;43435;46.186;9.024;2023-09-19T17:37:51;98497.22;;;26.63;56.06
57610;BME280;43435;46.186;9.024;2023-09-19T17:40:16;98498.69;;;26.46;56.92
57610;BME280;43435;46.186;9.024;2023-09-19T17:42:42;98498.19;;;26.31;57.58
57610;BME280;43435;46.186;9.024;2023-09-19T17:45:10;98508.94;;;26.13;57.50
57610;BME280;43435;46.186;9.024;2023-09-19T17:47:40;98524.66;;;25.94;58.61
57610;BME280;43435;46.186;9.024;2023-09-19T17:50:05;98517.84;;;25.77;59.50
57610;BME280;43435;46.186;9.024;2023-09-19T17:52:32;98524.50;;;25.58;60.36
57610;BME280;43435;46.186;9.024;2023-09-19T17:54:57;98524.25;;;25.40;61.65
57610;BME280;43435;46.186;9.024;2023-09-19T17:57:23;98527.25;;;25.25;62.28
57610;BME280;43435;46.186;9.024;2023-09-19T17:59:48;98531.06;;;25.10;63.46
57610;BME280;43435;46.186;9.024;2023-09-19T18:02:13;98539.81;;;24.88;64.53
57610;BME280;43435;46.186;9.024;2023-09-19T18:04:39;98540.97;;;24.68;63.93
57610;BME280;43435;46.186;9.024;2023-09-19T18:07:04;98540.19;;;24.63;64.85
57610;BME280;43435;46.186;9.024;2023-09-19T18:09:30;98544.19;;;24.51;65.54
57610;BME280;43435;46.186;9.024;2023-09-19T18:11:56;98554.63;;;24.44;66.88
57610;BME280;43435;46.186;9.024;2023-09-19T18:14:22;98545.88;;;24.47;67.13
57610;BME280;43435;46.186;9.024;2023-09-19T18:16:48;98553.06;;;24.38;67.06
57610;BME280;43435;46.186;9.024;2023-09-19T18:19:13;98554.53;;;24.06;68.41
57610;BME280;43435;46.186;9.024;2023-09-19T18:21:39;98565.22;;;24.03;68.39
57610;BME280;43435;46.186;9.024;2023-09-19T18:24:05;98569.28;;;24.05;67.79
57610;BME280;43435;46.186;9.024;2023-09-19T18:26:34;98570.31;;;24.09;67.46
57610;BME280;43435;46.186;9.024;2023-09-19T18:29:01;98572.00;;;24.05;67.55
57610;BME280;43435;46.186;9.024;2023-09-19T18:31:27;98578.09;;;23.97;67.95
57610;BME280;43435;46.186;9.024;2023-09-19T18:33:53;98574.91;;;23.90;68.69
57610;BME280;43435;46.186;9.024;2023-09-19T18:36:18;98583.09;;;23.85;68.13
57610;BME280;43435;46.186;9.024;2023-09-19T18:38:44;98589.72;;;23.79;68.14
57610;BME280;43435;46.186;9.024;2023-09-19T18:41:13;98595.25;;;23.69;67.68
57610;BME280;43435;46.186;9.024;2023-09-19T18:43:39;98600.84;;;23.48;67.76
57610;BME280;43435;46.186;9.024;2023-09-19T18:46:04;98599.28;;;23.42;67.76
57610;BME280;43435;46.186;9.024;2023-09-19T18:48:34;98600.97;;;23.33;67.71
57610;BME280;43435;46.186;9.024;2023-09-19T18:51:06;98603.75;;;23.28;68.16
57610;BME280;43435;46.186;9.024;2023-09-19T18:53:32;98613.84;;;23.22;67.93
57610;BME280;43435;46.186;9.024;2023-09-19T18:58:28;98622.38;;;23.10;68.03
57610;BME280;43435;46.186;9.024;2023-09-19T19:00:59;98621.81;;;23.08;67.73
57610;BME280;43435;46.186;9.024;2023-09-19T19:03:25;98624.28;;;23.05;67.77
57610;BME280;43435;46.186;9.024;2023-09-19T19:05:50;98628.38;;;23.07;67.57
57610;BME280;43435;46.186;9.024;2023-09-19T19:08:15;98632.19;;;23.06;67.59
57610;BME280;43435;46.186;9.024;2023-09-19T19:10:40;98635.16;;;23.05;67.25
57610;BME280;43435;46.186;9.024;2023-09-19T19:13:06;98639.88;;;22.94;67.37
57610;BME280;43435;46.186;9.024;2023-09-19T19:15:33;98637.94;;;23.00;67.48
57610;BME280;43435;46.186;9.024;2023-09-19T19:17:58;98647.50;;;22.92;67.51
57610;BME280;43435;46.186;9.024;2023-09-19T19:20:23;98646.41;;;22.88;67.50
57610;BME280;43435;46.186;9.024;2023-09-19T19:22:50;98654.00;;;22.86;67.69
57610;BME280;43435;46.186;9.024;2023-09-19T19:25:15;98651.28;;;22.86;67.32
57610;BME280;43435;46.186;9.024;2023-09-19T19:27:41;98647.00;;;22.75;67.63
57610;BME280;43435;46.186;9.024;2023-09-19T19:30:06;98648.66;;;22.76;67.51
57610;BME280;43435;46.186;9.024;2023-09-19T19:32:31;98647.63;;;22.61;67.46
57610;BME280;43435;46.186;9.024;2023-09-19T19:34:57;98654.72;;;22.52;67.73
57610;BME280;43435;46.186;9.024;2023-09-19T19:37:22;98654.72;;;22.52;68.41
57610;BME280;43435;46.186;9.024;2023-09-19T19:39:47;98649.31;;;22.47;69.99
57610;BME280;43435;46.186;9.024;2023-09-19T19:42:13;98657.22;;;22.38;71.82
57610;BME280;43435;46.186;9.024;2023-09-19T19:44:38;98657.50;;;22.37;72.03
57610;BME280;43435;46.186;9.024;2023-09-19T19:47:03;98660.25;;;22.32;72.41
57610;BME280;43435;46.186;9.024;2023-09-19T19:49:29;98663.75;;;22.37;72.06
57610;BME280;43435;46.186;9.024;2023-09-19T19:51:54;98676.47;;;22.42;71.22
57610;BME280;43435;46.186;9.024;2023-09-19T19:54:20;98669.94;;;22.53;70.44
57610;BME280;43435;46.186;9.024;2023-09-19T19:56:45;98678.09;;;22.48;70.28
57610;BME280;43435;46.186;9.024;2023-09-19T19:59:12;98671.91;;;22.42;70.03
57610;BME280;43435;46.186;9.024;2023-09-19T20:01:40;98671.06;;;22.42;69.95
57610;BME280;43435;46.186;9.024;2023-09-19T20:04:05;98668.94;;;22.24;70.33
57610;BME280;43435;46.186;9.024;2023-09-19T20:06:31;98669.50;;;22.15;71.13
57610;BME280;43435;46.186;9.024;2023-09-19T20:08:56;98666.78;;;22.15;71.23
57610;BME280;43435;46.186;9.024;2023-09-19T20:11:21;98666.22;;;22.08;71.90
57610;BME280;43435;46.186;9.024;2023-09-19T20:13:53;98675.44;;;22.12;71.86
57610;BME280;43435;46.186;9.024;2023-09-19T20:16:18;98667.88;;;22.04;71.95
57610;BME280;43435;46.186;9.024;2023-09-19T20:18:44;98668.41;;;22.06;71.82
57610;BME280;43435;46.186;9.024;2023-09-19T20:21:09;98668.41;;;22.06;72.74
57610;BME280;43435;46.186;9.024;2023-09-19T20:23:42;98664.06;;;22.00;72.91
57610;BME280;43435;46.186;9.024;2023-09-19T20:26:09;98670.59;;;21.94;72.87
57610;BME280;43435;46.186;9.024;2023-09-19T20:28:35;98673.31;;;21.94;72.94
57610;BME280;43435;46.186;9.024;2023-09-19T20:31:09;98675.78;;;21.85;73.52
57610;BME280;43435;46.186;9.024;2023-09-19T20:33:35;98671.44;;;21.74;73.78
57610;BME280;43435;46.186;9.024;2023-09-19T20:36:04;98675.50;;;21.66;73.98
57610;BME280;43435;46.186;9.024;2023-09-19T20:38:32;98674.97;;;21.59;73.91
57610;BME280;43435;46.186;9.024;2023-09-19T20:40:58;98679.31;;;21.55;74.22
57610;BME280;43435;46.186;9.024;2023-09-19T20:43:23;98681.50;;;21.43;74.76
57610;BME280;43435;46.186;9.024;2023-09-19T20:45:49;98682.56;;;21.37;75.32
57610;BME280;43435;46.186;9.024;2023-09-19T20:48:18;98691.72;;;21.26;75.83
57610;BME280;43435;46.186;9.024;2023-09-19T20:50:43;98687.44;;;21.40;75.94
57610;BME280;43435;46.186;9.024;2023-09-19T20:53:09;98688.00;;;21.47;76.07
57610;BME280;43435;46.186;9.024;2023-09-19T20:55:35;98690.44;;;21.49;76.11
57610;BME280;43435;46.186;9.024;2023-09-19T20:58:01;98696.66;;;21.49;76.34
57610;BME280;43435;46.186;9.024;2023-09-19T21:00:27;98699.38;;;21.44;77.11
57610;BME280;43435;46.186;9.024;2023-09-19T21:02:53;98698.28;;;21.40;77.19
57610;BME280;43435;46.186;9.024;2023-09-19T21:05:18;98701.25;;;21.33;77.22
57610;BME280;43435;46.186;9.024;2023-09-19T21:07:46;98708.00;;;21.26;78.11
57610;BME280;43435;46.186;9.024;2023-09-19T21:10:12;98704.72;;;21.23;78.55
57610;BME280;43435;46.186;9.024;2023-09-19T21:12:37;98706.59;;;21.13;79.31
57610;BME280;43435;46.186;9.024;2023-09-19T21:15:03;98710.69;;;21.10;79.70
57610;BME280;43435;46.186;9.024;2023-09-19T21:17:29;98712.31;;;21.06;79.83
57610;BME280;43435;46.186;9.024;2023-09-19T21:19:54;98717.69;;;21.01;80.28
57610;BME280;43435;46.186;9.024;2023-09-19T21:22:19;98716.06;;;21.05;80.36
57610;BME280;43435;46.186;9.024;2023-09-19T21:24:47;98713.88;;;21.02;80.58
57610;BME280;43435;46.186;9.024;2023-09-19T21:27:12;98708.47;;;20.97;80.51
57610;BME280;43435;46.186;9.024;2023-09-19T21:29:39;98716.84;;;20.85;81.33
57610;BME280;43435;46.186;9.024;2023-09-19T21:32:05;98717.00;;;20.63;82.43
57610;BME280;43435;46.186;9.024;2023-09-19T21:34:30;98706.97;;;20.64;82.23
57610;BME280;43435;46.186;9.024;2023-09-19T21:36:55;98705.66;;;20.71;81.99
57610;BME280;43435;46.186;9.024;2023-09-19T21:39:21;98716.78;;;20.70;81.86
57610;BME280;43435;46.186;9.024;2023-09-19T21:41:46;98713.25;;;20.74;81.83
57610;BME280;43435;46.186;9.024;2023-09-19T21:44:12;98718.16;;;20.78;82.21
